Time;durP1;ratioP1;P1;durP2;ratioP2;P2;SDS_P1;SDS_P2;PMS_P1;PMS_P2;Temp;Humidity;BMP_temperature;BMP_pressure;BME280_temperature;BME280_humidity;BME280_pressure;Samples;Min_cycle;Max_cycle;Signal;HPM_P1;HPM_P2
2021/08/09 00:01:38;;;;;;;13.20;6.30;;;;;;;18.98;73.61;100660.75;126330;1099;104242;-78
2021/08/09 00:04:10;;;;;;;10.83;6.13;;;;;;;18.98;73.83;100652.77;126289;1099;104229;-77
2021/08/09 00:06:41;;;;;;;16.00;6.37;;;;;;;18.97;73.81;100658.95;126304;1099;104146;-77
2021/08/09 00:09:14;;;;;;;12.90;6.60;;;;;;;18.96;74.46;100656.29;126359;1099;104142;-78
2021/08/09 00:11:47;;;;;;;11.30;6.12;;;;;;;18.93;73.77;100653.62;126353;1099;104573;-78
2021/08/09 00:14:19;;;;;;;13.80;6.00;;;;;;;18.91;74.59;100645.63;126329;1099;104192;-79
2021/08/09 00:16:51;;;;;;;13.90;5.90;;;;;;;18.90;74.77;100646.55;126318;1099;104146;-79
2021/08/09 00:19:22;;;;;;;10.67;5.73;;;;;;;18.87;74.33;100649.19;125381;1099;104300;-78
2021/08/09 00:21:53;;;;;;;11.63;5.60;;;;;;;18.85;74.16;100649.18;126297;1099;104300;-79
2021/08/09 00:24:25;;;;;;;12.73;6.33;;;;;;;18.85;74.10;100637.64;126230;1099;105463;-79
2021/08/09 00:26:57;;;;;;;11.80;5.60;;;;;;;18.85;74.65;100637.64;126331;1099;104245;-78
2021/08/09 00:29:28;;;;;;;13.33;5.73;;;;;;;18.84;74.52;100636.76;126299;1098;104160;-78
2021/08/09 00:32:00;;;;;;;12.40;6.03;;;;;;;18.81;75.12;100641.16;126298;1098;104146;-79
2021/08/09 00:34:33;;;;;;;12.67;6.30;;;;;;;18.80;75.66;100634.92;126246;1099;104184;-78
2021/08/09 00:37:04;;;;;;;10.87;5.80;;;;;;;18.76;74.74;100638.47;126313;1099;104140;-79
2021/08/09 00:39:36;;;;;;;11.27;5.93;;;;;;;18.76;75.00;100637.56;126371;1099;104153;-79
2021/08/09 00:42:08;;;;;;;;;;;;;;;18.72;75.03;100631.36;126395;1099;104197;-77
2021/08/09 00:44:43;;;;;;;14.07;6.47;;;;;;;18.69;75.45;100626.02;126222;1099;104270;-78
2021/08/09 00:47:16;;;;;;;12.80;6.57;;;;;;;18.68;75.09;100625.15;125426;1102;104172;-78
2021/08/09 00:49:48;;;;;;;13.70;6.73;;;;;;;18.68;75.41;100633.13;126331;1099;104728;-77
2021/08/09 00:52:22;;;;;;;14.23;6.40;;;;;;;18.67;75.31;100628.67;126325;1099;104155;-78
2021/08/09 00:54:55;;;;;;;13.23;6.67;;;;;;;18.66;75.90;100623.35;126302;1099;103591;-78
2021/08/09 00:57:27;;;;;;;14.13;6.43;;;;;;;18.65;75.56;100619.82;126261;1099;104310;-78
2021/08/09 01:00:01;;;;;;;14.70;6.57;;;;;;;18.64;76.06;100628.66;126315;1099;104245;-78
2021/08/09 01:02:34;;;;;;;13.23;6.67;;;;;;;18.61;75.69;100633.96;126241;1099;104156;-79
2021/08/09 01:05:09;;;;;;;14.00;6.37;;;;;;;18.59;76.15;100638.39;126298;1099;104322;-78
2021/08/09 01:07:58;;;;;;;11.10;6.17;;;;;;;18.57;76.04;100636.59;126332;1099;104178;-78
2021/08/09 01:10:38;;;;;;;13.57;6.40;;;;;;;18.55;76.11;100644.56;125377;1099;104207;-78
2021/08/09 01:13:15;;;;;;;16.47;6.73;;;;;;;18.52;76.50;100635.69;126335;1099;104640;-78
2021/08/09 01:15:54;;;;;;;12.27;5.97;;;;;;;18.50;76.19;100633.03;126240;1099;104249;-78
2021/08/09 01:18:29;;;;;;;13.13;6.03;;;;;;;18.48;76.37;100633.02;126390;1099;104153;-78
2021/08/09 01:21:02;;;;;;;10.97;6.37;;;;;;;18.47;75.89;100630.36;126328;1098;104204;-78
2021/08/09 01:23:47;;;;;;;14.67;5.97;;;;;;;18.45;76.58;100633.00;126342;1099;104624;-79
2021/08/09 01:26:28;;;;;;;14.67;7.00;;;;;;;18.45;76.64;100632.09;126273;1099;104152;-78
2021/08/09 01:29:01;;;;;;;11.83;6.23;;;;;;;18.43;76.27;100623.23;126316;1099;104149;-78
2021/08/09 01:31:40;;;;;;;11.63;6.40;;;;;;;18.42;76.59;100626.80;125398;1098;104140;-79
2021/08/09 01:34:15;;;;;;;14.50;6.70;;;;;;;18.40;76.62;100629.44;126349;1099;104198;-78
2021/08/09 01:36:50;;;;;;;13.53;6.10;;;;;;;18.37;76.59;100618.80;126263;1099;104252;-78
2021/08/09 01:39:20;;;;;;;;;;;;;;;18.35;76.15;100614.34;126393;1099;104150;-79
2021/08/09 01:41:54;;;;;;;12.63;6.13;;;;;;;18.33;76.65;100619.65;125425;1099;104256;-79
2021/08/09 01:44:26;;;;;;;14.20;6.00;;;;;;;18.32;76.70;100618.77;126356;1099;104162;-78
2021/08/09 01:46:59;;;;;;;16.30;6.10;;;;;;;18.33;76.63;100619.65;126311;1099;104255;-79
2021/08/09 01:49:33;;;;;;;12.80;6.60;;;;;;;18.31;76.70;100619.64;126308;1099;104156;-79
2021/08/09 01:52:08;;;;;;;12.67;6.53;;;;;;;18.27;77.21;100623.14;126344;1098;104140;-77
2021/08/09 01:54:41;;;;;;;15.67;6.43;;;;;;;18.26;77.04;100623.13;126260;1099;104149;-77
2021/08/09 01:57:13;;;;;;;13.10;6.50;;;;;;;18.26;76.96;100628.45;126293;1099;104198;-78
2021/08/09 01:59:45;;;;;;;10.17;6.40;;;;;;;18.23;77.12;100626.69;126351;1099;104265;-79
2021/08/09 02:02:24;;;;;;;15.07;6.43;;;;;;;18.21;77.14;100616.91;126315;1099;104338;-79
2021/08/09 02:04:56;;;;;;;14.07;5.80;;;;;;;18.22;77.05;100616.05;126346;1099;104184;-78
2021/08/09 02:07:27;;;;;;;12.93;6.50;;;;;;;18.20;77.43;100616.04;126280;1098;104198;-79
2021/08/09 02:09:58;;;;;;;12.73;6.70;;;;;;;18.20;77.23;100616.04;126354;1099;105159;-78
2021/08/09 02:12:30;;;;;;;13.73;6.43;;;;;;;18.22;77.31;100616.92;125381;1099;104242;-78
2021/08/09 02:15:03;;;;;;;12.37;6.20;;;;;;;18.22;77.31;100619.58;125331;1099;104386;-78
2021/08/09 02:17:42;;;;;;;14.15;6.67;;;;;;;18.18;77.35;100623.08;126323;1099;104149;-79
2021/08/09 02:20:24;;;;;;;14.80;6.37;;;;;;;18.14;77.51;100623.97;126295;1099;104175;-77
2021/08/09 02:22:59;;;;;;;11.97;6.80;;;;;;;18.10;77.79;100630.13;126283;1099;104169;-78
2021/08/09 02:25:32;;;;;;;;;;;;;;;18.04;78.07;100630.08;126368;1099;104137;-78
2021/08/09 02:28:12;;;;;;;12.43;6.40;;;;;;;17.99;78.32;100631.82;126284;1099;104216;-77
2021/08/09 02:30:48;;;;;;;12.17;6.77;;;;;;;17.92;78.07;100631.77;126350;1099;104458;-78
2021/08/09 02:33:22;;;;;;;11.60;6.20;;;;;;;17.91;78.03;100645.03;126339;1099;104146;-78
2021/08/09 02:35:54;;;;;;;11.77;6.00;;;;;;;17.89;78.75;100642.36;126342;1099;104140;-77
2021/08/09 02:38:29;;;;;;;12.63;6.58;;;;;;;17.89;78.88;100652.98;126294;1099;104150;-77
2021/08/09 02:41:01;;;;;;;13.07;6.43;;;;;;;17.86;78.79;100650.27;126290;1099;104297;-77
2021/08/09 02:43:33;;;;;;;13.60;6.47;;;;;;;17.82;78.34;100652.88;126354;1099;104623;-79
2021/08/09 02:46:05;;;;;;;12.00;6.10;;;;;;;17.81;78.89;100664.36;126309;1099;104181;-78
2021/08/09 02:48:41;;;;;;;12.95;6.47;;;;;;;17.79;78.92;100662.61;126278;1098;104168;-77
2021/08/09 02:51:13;;;;;;;11.83;6.23;;;;;;;17.80;78.86;100660.83;126352;1099;104246;-79
2021/08/09 02:53:48;;;;;;;14.23;6.37;;;;;;;17.82;78.90;100660.84;126317;1099;104767;-78
2021/08/09 02:56:26;;;;;;;14.13;6.70;;;;;;;17.84;78.69;100660.00;126358;1099;104160;-77
2021/08/09 02:58:57;;;;;;;12.83;6.47;;;;;;;17.83;78.69;100670.60;126271;1099;104246;-78
2021/08/09 03:01:31;;;;;;;13.10;6.20;;;;;;;17.82;78.86;100669.69;126346;1099;102070;-78
2021/08/09 03:04:08;;;;;;;15.47;6.83;;;;;;;17.78;79.08;100670.56;126342;1099;104217;-78
2021/08/09 03:06:40;;;;;;;13.37;6.53;;;;;;;17.76;78.98;100670.55;126285;1097;104348;-79
2021/08/09 03:09:13;;;;;;;13.50;6.25;;;;;;;17.74;79.12;100669.62;126274;1099;104156;-78
2021/08/09 03:11:45;;;;;;;12.37;6.27;;;;;;;17.73;79.18;100677.56;125394;1099;104152;-77
2021/08/09 03:14:26;;;;;;;14.50;7.33;;;;;;;17.71;79.35;100682.86;126349;1099;104150;-77
2021/08/09 03:17:08;;;;;;;13.53;6.37;;;;;;;17.71;78.96;100684.64;126354;1099;104155;-79
2021/08/09 03:19:39;;;;;;;13.33;6.27;;;;;;;17.71;79.43;100689.94;126230;1099;104188;-77
2021/08/09 03:22:11;;;;;;;14.47;6.57;;;;;;;17.71;79.42;100690.82;126353;1099;104264;-78
2021/08/09 03:24:42;;;;;;;17.10;7.60;;;;;;;17.71;79.60;100690.82;126317;1099;104246;-78
2021/08/09 03:27:13;;;;;;;12.57;6.70;;;;;;;17.70;79.55;100685.50;126315;1099;104219;-77
2021/08/09 03:29:46;;;;;;;13.67;6.67;;;;;;;17.68;79.83;100692.56;126272;1099;104136;-79
2021/08/09 03:32:17;;;;;;;12.03;6.77;;;;;;;17.66;79.75;100697.86;125351;1099;104178;-78
2021/08/09 03:34:49;;;;;;;12.37;6.57;;;;;;;17.64;80.07;100704.92;126340;1099;104140;-79
2021/08/09 03:37:20;;;;;;;11.83;6.57;;;;;;;17.64;79.72;100701.36;126345;1099;104704;-78
2021/08/09 03:39:52;;;;;;;15.20;6.83;;;;;;;17.64;80.04;100698.70;126305;1099;104219;-78
2021/08/09 03:42:23;;;;;;;11.10;6.33;;;;;;;17.65;79.97;100695.19;126308;1099;104299;-77
2021/08/09 03:44:54;;;;;;;13.57;6.93;;;;;;;17.65;79.78;100696.07;126308;1099;104402;-78
2021/08/09 03:47:25;;;;;;;14.23;6.50;;;;;;;17.66;80.17;100696.98;126314;1099;104617;-78
2021/08/09 03:50:05;;;;;;;12.87;6.87;;;;;;;17.67;80.72;100697.00;126275;1099;104227;-77
2021/08/09 03:52:37;;;;;;;11.25;6.00;;;;;;;17.68;80.21;100696.09;126356;1099;104141;-77
2021/08/09 03:55:08;;;;;;;12.83;6.27;;;;;;;17.69;80.37;100704.97;126330;1099;104255;-78
2021/08/09 03:57:39;;;;;;;11.03;6.03;;;;;;;17.71;80.93;100705.87;126217;1099;104175;-76
2021/08/09 04:00:14;;;;;;;14.60;6.23;;;;;;;17.73;80.66;100698.80;126139;1099;104179;-76
2021/08/09 04:02:46;;;;;;;12.47;6.30;;;;;;;17.76;80.92;100704.14;126223;1099;104140;-76
2021/08/09 04:05:25;;;;;;;12.37;6.40;;;;;;;17.79;80.66;100706.81;125365;1099;104235;-76
2021/08/09 04:07:56;;;;;;;11.50;6.13;;;;;;;17.81;80.78;100696.22;125336;1099;104220;-76
2021/08/09 04:10:27;;;;;;;11.23;5.73;;;;;;;17.84;80.69;100696.25;125298;1099;104146;-77
2021/08/09 04:12:59;;;;;;;11.43;5.77;;;;;;;17.86;80.99;100695.39;125378;1099;104156;-78
2021/08/09 04:15:30;;;;;;;12.57;6.07;;;;;;;17.91;81.00;100699.00;126321;1099;104146;-76
2021/08/09 04:18:02;;;;;;;10.70;6.03;;;;;;;17.95;81.09;100691.95;126347;1098;104146;-78
2021/08/09 04:20:33;;;;;;;11.33;5.87;;;;;;;18.03;80.77;100697.32;126273;1099;104133;-78
2021/08/09 04:23:04;;;;;;;13.67;6.57;;;;;;;18.09;80.81;100697.38;126327;1099;104240;-79
2021/08/09 04:25:36;;;;;;;9.97;5.90;;;;;;;18.13;80.68;100688.56;126362;1099;104634;-78
2021/08/09 04:28:07;;;;;;;12.80;6.10;;;;;;;18.16;80.70;100691.24;125382;1099;104662;-78
2021/08/09 04:30:39;;;;;;;12.40;6.30;;;;;;;18.20;80.72;100687.74;126272;1098;104245;-78
2021/08/09 04:33:10;;;;;;;14.97;5.80;;;;;;;18.26;81.06;100677.16;126260;1099;104248;-78
2021/08/09 04:35:45;;;;;;;15.47;6.37;;;;;;;18.35;80.71;100683.41;126185;1099;104172;-79
2021/08/09 04:38:17;;;;;;;14.73;6.40;;;;;;;18.42;80.60;100675.49;126366;1099;104149;-79
2021/08/09 04:40:48;;;;;;;10.90;5.90;;;;;;;18.48;80.41;100677.28;125535;1099;104143;-80
2021/08/09 04:43:19;;;;;;;12.20;5.67;;;;;;;18.55;80.27;100678.23;126360;1099;104252;-78
2021/08/09 04:45:54;;;;;;;14.10;6.20;;;;;;;18.62;80.28;100667.64;125415;1099;104208;-78
2021/08/09 04:48:27;;;;;;;13.30;5.97;;;;;;;18.69;80.02;100668.55;126245;1099;104143;-79
2021/08/09 04:50:59;;;;;;;13.63;5.83;;;;;;;18.74;80.37;100669.45;126239;1098;104153;-78
2021/08/09 04:53:30;;;;;;;12.10;5.57;;;;;;;18.81;80.24;100660.64;126323;1099;104156;-79
2021/08/09 04:56:01;;;;;;;10.60;5.80;;;;;;;18.88;80.61;100658.92;126335;1099;104252;-79
2021/08/09 04:58:36;;;;;;;12.20;5.33;;;;;;;18.95;79.85;100668.70;126277;1099;104168;-77
2021/08/09 05:01:08;;;;;;;11.87;5.83;;;;;;;19.00;80.13;100663.41;125308;1102;104198;-77
2021/08/09 05:03:40;;;;;;;13.83;5.27;;;;;;;19.06;79.69;100662.52;126269;1099;104204;-77
2021/08/09 05:06:19;;;;;;;13.63;5.43;;;;;;;19.13;79.82;100664.33;126216;1099;102964;-77
2021/08/09 05:08:52;;;;;;;11.47;5.60;;;;;;;19.17;79.70;100660.81;125405;1099;104191;-78
2021/08/09 05:11:26;;;;;;;9.43;4.90;;;;;;;19.20;79.67;100661.70;125427;1099;104182;-77
2021/08/09 05:14:05;;;;;;;8.87;5.30;;;;;;;19.30;80.38;100667.05;126181;1099;104198;-77
2021/08/09 05:16:40;;;;;;;14.40;5.70;;;;;;;19.36;79.89;100665.27;126240;1099;104149;-77
2021/08/09 05:19:15;;;;;;;15.10;5.83;;;;;;;19.44;80.21;100664.41;126231;1099;104140;-78
2021/08/09 05:21:54;;;;;;;17.00;5.87;;;;;;;19.52;79.13;100659.98;126222;1099;104152;-79
2021/08/09 05:24:32;;;;;;;11.33;5.23;;;;;;;19.61;79.68;100667.11;126256;1099;104165;-78
2021/08/09 05:27:05;;;;;;;11.83;5.00;;;;;;;19.69;79.76;100671.53;126248;1099;104725;-79
2021/08/09 05:29:41;;;;;;;12.90;4.80;;;;;;;19.75;79.26;100668.88;126247;1099;104596;-78
2021/08/09 05:32:17;;;;;;;9.80;4.97;;;;;;;19.83;79.15;100668.04;126116;1099;104223;-81
2021/08/09 05:34:54;;;;;;;9.47;5.30;;;;;;;19.92;79.52;100668.04;126361;1099;104254;-81
2021/08/09 05:37:34;;;;;;;9.78;5.20;;;;;;;19.98;79.27;100668.04;126167;1099;104182;-79
2021/08/09 05:40:10;;;;;;;15.90;5.40;;;;;;;20.05;79.04;100669.80;126083;1099;104393;-79
2021/08/09 05:42:49;;;;;;;15.67;5.57;;;;;;;20.12;78.85;100670.70;126102;1099;104150;-78
2021/08/09 05:45:23;;;;;;;14.53;5.77;;;;;;;20.20;79.26;100673.36;125384;1099;104235;-77
2021/08/09 05:47:57;;;;;;;14.97;5.70;;;;;;;20.28;78.12;100676.89;126090;1099;104140;-79
2021/08/09 05:50:31;;;;;;;15.40;5.97;;;;;;;20.35;78.35;100673.34;126056;1099;104621;-77
2021/08/09 05:53:12;;;;;;;17.70;5.43;;;;;;;20.41;78.26;100657.34;125264;1099;104296;-79
2021/08/09 05:55:47;;;;;;;20.23;5.77;;;;;;;20.46;77.62;100657.33;125330;1099;104143;-79
2021/08/09 05:58:22;;;;;;;12.20;5.57;;;;;;;20.54;78.73;100651.98;125262;1099;104172;-77
2021/08/09 06:00:57;;;;;;;20.40;5.63;;;;;;;20.62;78.62;100647.50;126246;1099;104146;-80
2021/08/09 06:03:35;;;;;;;18.10;6.10;;;;;;;20.73;77.55;100661.70;125264;1099;104147;-80
2021/08/09 06:06:16;;;;;;;17.83;6.27;;;;;;;20.81;78.11;100665.22;125251;1099;104144;-80
2021/08/09 06:08:51;;;;;;;21.77;6.33;;;;;;;20.90;77.41;100666.98;126076;1099;102022;-80
2021/08/09 06:11:27;;;;;;;20.30;6.83;;;;;;;21.00;77.46;100674.06;125240;1099;104156;-77
2021/08/09 06:14:04;;;;;;;23.33;6.80;;;;;;;21.10;76.95;100680.23;126137;1098;104307;-79
2021/08/09 06:16:46;;;;;;;23.00;6.07;;;;;;;21.19;77.00;100685.52;126094;1099;104233;-80
2021/08/09 06:19:24;;;;;;;27.62;6.95;;;;;;;21.28;76.46;100684.56;126093;1099;104153;-79
2021/08/09 06:21:57;;;;;;;20.48;6.00;;;;;;;21.37;76.98;100697.86;125743;1099;104211;-80
2021/08/09 06:24:30;;;;;;;20.47;7.03;;;;;;;21.45;76.54;100692.48;125267;1099;104309;-79
2021/08/09 06:27:10;;;;;;;18.23;5.40;;;;;;;21.54;75.51;100694.25;125365;1099;104257;-79
2021/08/09 06:29:48;;;;;;;20.17;5.60;;;;;;;21.66;75.99;100690.59;126122;1099;104229;-81
2021/08/09 06:32:24;;;;;;;20.83;6.17;;;;;;;21.75;76.03;100687.86;126030;1099;104306;-79
2021/08/09 06:34:58;;;;;;;18.07;6.27;;;;;;;21.85;75.96;100686.03;126126;1099;104153;-80
2021/08/09 06:37:36;;;;;;;13.63;5.30;;;;;;;21.95;75.20;100681.48;126252;1099;104213;-80
2021/08/09 06:40:10;;;;;;;11.65;4.75;;;;;;;22.02;74.61;100680.55;126140;1098;104224;-81
2021/08/09 06:42:46;;;;;;;15.20;5.13;;;;;;;22.12;74.10;100681.34;125686;1099;104252;-79
2021/08/09 06:45:40;;;;;;;15.50;4.83;;;;;;;22.22;74.42;100675.91;126092;1099;104184;-78
2021/08/09 06:48:15;;;;;;;11.43;5.03;;;;;;;22.36;73.68;100680.24;126131;1099;104155;-81
2021/08/09 06:50:55;;;;;;;11.07;4.77;;;;;;;22.49;73.78;100681.90;126255;1099;104144;-80
2021/08/09 06:53:30;;;;;;;10.83;4.70;;;;;;;22.61;73.19;100684.44;126236;1098;104221;-79
2021/08/09 06:56:04;;;;;;;12.43;5.37;;;;;;;22.73;73.24;100671.83;126185;1099;104169;-78
2021/08/09 06:58:42;;;;;;;11.93;4.90;;;;;;;22.86;72.71;100673.46;126198;1099;104140;-79
2021/08/09 07:01:16;;;;;;;12.20;4.57;;;;;;;23.01;72.42;100674.16;125417;1099;104143;-78
2021/08/09 07:03:50;;;;;;;11.43;4.50;;;;;;;23.14;72.54;100679.38;126113;1099;104275;-79
2021/08/09 07:06:26;;;;;;;10.37;4.70;;;;;;;23.27;71.52;100669.38;126153;1099;104070;-80
2021/08/09 07:09:06;;;;;;;12.87;4.50;;;;;;;23.45;71.54;100670.92;125311;1099;104226;-78
2021/08/09 07:11:41;;;;;;;16.20;4.77;;;;;;;23.65;70.32;100673.30;126124;1098;104146;-81
2021/08/09 07:14:24;;;;;;;8.83;4.97;;;;;;;23.81;70.22;100676.61;125424;1099;104140;-80
2021/08/09 07:17:01;;;;;;;16.10;5.63;;;;;;;24.02;69.87;100675.38;125414;1099;104150;-81
2021/08/09 07:19:41;;;;;;;15.53;6.03;;;;;;;24.20;69.95;100673.31;126274;1099;104189;-81
2021/08/09 07:22:17;;;;;;;17.03;5.57;;;;;;;24.37;69.74;100676.56;125421;1099;104198;-79
2021/08/09 07:24:54;;;;;;;14.00;5.20;;;;;;;24.60;68.99;100675.25;126142;1099;108153;-81
2021/08/09 07:27:33;;;;;;;11.97;5.30;;;;;;;24.83;68.64;100672.11;125288;1099;104172;-81
2021/08/09 07:30:11;;;;;;;10.33;5.03;;;;;;;25.01;67.38;100665.48;126071;1099;104178;-78
2021/08/09 07:32:47;;;;;;;11.05;4.95;;;;;;;25.20;67.13;100667.78;125227;1099;104210;-79
2021/08/09 07:35:30;;;;;;;11.53;4.97;;;;;;;25.31;66.92;100668.45;125257;1099;104335;-80
2021/08/09 07:38:10;;;;;;;14.47;5.13;;;;;;;25.52;66.27;100660.80;125112;1102;104338;-80
2021/08/09 07:40:50;;;;;;;12.93;4.90;;;;;;;25.71;65.84;100661.23;125228;1100;104394;-81
2021/08/09 07:43:24;;;;;;;13.37;5.23;;;;;;;25.90;65.91;100661.66;125172;1099;104105;-81
2021/08/09 07:48:48;;;;;;;12.80;5.03;;;;;;;26.23;64.46;100656.38;125226;1102;104486;-81
2021/08/09 07:51:27;;;;;;;14.87;5.60;;;;;;;26.39;63.91;100651.46;125210;1102;104219;-81
2021/08/09 07:54:01;;;;;;;13.80;5.83;;;;;;;26.51;63.59;100651.99;125193;1102;104251;-80
2021/08/09 07:56:36;;;;;;;11.03;5.13;;;;;;;26.69;63.46;100661.41;125296;1102;104312;-80
2021/08/09 07:59:12;;;;;;;18.43;6.00;;;;;;;26.80;62.24;100641.34;125363;1102;104152;-82
2021/08/09 08:01:49;;;;;;;14.80;6.67;;;;;;;27.05;62.11;100653.16;125164;1102;104274;-81
2021/08/09 08:04:28;;;;;;;10.50;5.20;;;;;;;27.18;61.42;100672.52;125202;1102;104487;-79
2021/08/09 08:07:11;;;;;;;16.00;5.97;;;;;;;27.36;60.91;100676.50;125264;1102;104255;-78
2021/08/09 08:09:51;;;;;;;15.03;6.27;;;;;;;27.60;60.30;100673.95;125260;1099;104242;-79
2021/08/09 08:12:24;;;;;;;13.23;6.27;;;;;;;27.72;59.54;100686.12;125313;1102;104360;-79
2021/08/09 08:14:57;;;;;;;13.00;5.72;;;;;;;27.69;59.56;100686.22;125163;1099;104152;-78
2021/08/09 08:17:38;;;;;;;13.00;5.63;;;;;;;27.76;58.87;100687.80;125281;1099;104494;-78
2021/08/09 08:20:17;;;;;;;10.97;5.80;;;;;;;27.92;58.38;100686.34;126130;1099;104196;-79
2021/08/09 08:22:53;;;;;;;15.10;5.70;;;;;;;28.06;57.38;100682.34;126103;1099;104150;-78
2021/08/09 08:25:26;;;;;;;14.27;5.30;;;;;;;28.17;57.05;100690.06;126028;1099;104188;-78
2021/08/09 08:28:03;;;;;;;11.97;5.47;;;;;;;28.30;56.64;100694.98;126218;1099;104136;-80
2021/08/09 08:30:43;;;;;;;13.00;5.30;;;;;;;28.40;56.31;100689.27;125207;1101;104315;-78
2021/08/09 08:33:22;;;;;;;11.00;5.07;;;;;;;28.48;56.11;100693.44;125236;1102;104258;-78
2021/08/09 08:35:54;;;;;;;13.47;5.60;;;;;;;28.54;54.73;100718.47;125174;1099;104944;-80
2021/08/09 08:38:30;;;;;;;14.53;5.80;;;;;;;28.56;54.07;100728.25;125284;1102;104302;-78
2021/08/09 08:41:10;;;;;;;7.47;4.83;;;;;;;28.59;53.74;100730.00;125275;1102;104146;-80
2021/08/09 08:43:48;;;;;;;9.73;4.90;;;;;;;28.63;52.59;100734.37;125280;1102;104565;-79
2021/08/09 08:46:24;;;;;;;9.17;4.73;;;;;;;28.71;52.53;100731.39;125222;1099;104153;-80
2021/08/09 08:49:01;;;;;;;7.43;4.53;;;;;;;28.74;51.79;100723.19;125316;1099;104300;-79
2021/08/09 08:51:38;;;;;;;10.10;4.37;;;;;;;28.74;51.29;100733.98;125271;1099;104194;-78
2021/08/09 08:54:14;;;;;;;12.47;5.13;;;;;;;28.80;50.56;100731.06;125255;1099;104274;-80
2021/08/09 08:56:48;;;;;;;9.37;4.87;;;;;;;28.80;49.23;100725.66;125237;1102;109349;-80
2021/08/09 08:59:22;;;;;;;9.13;4.83;;;;;;;28.78;49.73;100728.42;125289;1099;104297;-79
2021/08/09 09:01:56;;;;;;;11.07;4.30;;;;;;;28.75;48.69;100725.83;125370;1099;104282;-78
2021/08/09 09:04:33;;;;;;;6.50;4.40;;;;;;;28.84;49.60;100719.19;126202;1099;104150;-78
2021/08/09 09:07:09;;;;;;;9.30;4.20;;;;;;;28.81;49.24;100722.91;125345;1099;118151;-77
2021/08/09 09:09:44;;;;;;;9.20;4.07;;;;;;;28.88;48.92;100712.75;126113;1099;104233;-77
2021/08/09 09:12:22;;;;;;;9.97;4.07;;;;;;;28.94;49.25;100712.52;126181;1099;104234;-79
2021/08/09 09:15:06;;;;;;;6.03;4.03;;;;;;;29.02;49.15;100712.23;126124;1099;104192;-78
2021/08/09 09:17:46;;;;;;;12.43;4.50;;;;;;;29.06;48.37;100716.56;126142;1099;104200;-77
2021/08/09 09:20:27;;;;;;;8.13;4.37;;;;;;;29.03;48.15;100706.77;126201;1099;104595;-78
2021/08/09 09:25:59;;;;;;;9.73;4.47;;;;;;;29.00;48.15;100706.89;125227;1102;105630;-78
2021/08/09 09:28:35;;;;;;;8.47;4.50;;;;;;;29.03;48.49;100698.67;125041;1105;104444;-79
2021/08/09 09:31:14;;;;;;;6.17;3.97;;;;;;;29.07;48.12;100696.72;125032;1105;101894;-78
2021/08/09 09:33:50;;;;;;;7.37;4.37;;;;;;;29.09;48.18;100696.66;125074;1105;104297;-77
2021/08/09 09:36:24;;;;;;;8.37;4.00;;;;;;;29.11;47.20;100701.08;124919;1105;104419;-77
2021/08/09 09:38:58;;;;;;;7.50;4.40;;;;;;;29.17;47.73;100695.44;124992;1105;104222;-78
2021/08/09 09:41:39;;;;;;;5.90;4.20;;;;;;;29.17;47.61;100694.53;124960;1105;104152;-77
2021/08/09 09:44:23;;;;;;;6.27;3.90;;;;;;;29.08;46.12;100687.69;124921;1105;104297;-78
2021/08/09 09:47:17;;;;;;;8.17;3.87;;;;;;;29.01;45.99;100687.02;124787;1106;105480;-77
2021/08/09 09:49:49;;;;;;;5.27;3.77;;;;;;;29.00;45.89;100687.98;124739;1105;104270;-78
2021/08/09 09:52:33;;;;;;;5.77;3.90;;;;;;;29.00;45.63;100685.28;124909;1105;104264;-78
2021/08/09 09:55:14;;;;;;;;;;;;;;;29.01;44.08;100691.55;124650;1106;104270;-77
2021/08/09 09:57:49;;;;;;;6.77;3.63;;;;;;;28.99;45.18;100682.64;124657;1105;104344;-77
2021/08/09 10:00:27;;;;;;;6.10;3.70;;;;;;;28.99;45.16;100691.61;124684;1106;104422;-79
2021/08/09 10:03:05;;;;;;;5.77;3.80;;;;;;;29.00;45.16;100690.69;124866;1105;104169;-76
2021/08/09 10:05:42;;;;;;;5.57;3.80;;;;;;;29.03;45.60;100677.06;124890;1105;104162;-77
2021/08/09 10:08:19;;;;;;;8.13;4.20;;;;;;;29.04;45.61;100675.23;124894;1105;104220;-77
2021/08/09 10:11:02;;;;;;;7.65;4.00;;;;;;;29.04;45.57;100670.70;124907;1105;104203;-77
2021/08/09 10:13:35;;;;;;;7.50;4.30;;;;;;;29.09;45.68;100675.92;124768;1105;104342;-77
2021/08/09 10:16:10;;;;;;;7.45;3.95;;;;;;;29.17;45.57;100676.53;124794;1105;104233;-77
2021/08/09 10:18:47;;;;;;;5.60;3.77;;;;;;;29.22;44.95;100684.49;124852;1105;104223;-77
2021/08/09 10:21:21;;;;;;;4.77;3.60;;;;;;;29.17;44.58;100689.14;124916;1103;104162;-76
2021/08/09 10:23:54;;;;;;;6.83;4.00;;;;;;;29.11;44.25;100684.87;125141;1102;104740;-75
2021/08/09 10:26:49;;;;;;;5.17;3.70;;;;;;;29.06;42.64;100678.74;125022;1102;104273;-76
2021/08/09 10:29:24;;;;;;;9.63;3.93;;;;;;;29.11;44.11;100681.27;124856;1106;104341;-76
2021/08/09 10:32:21;;;;;;;5.17;4.03;;;;;;;29.12;43.39;100683.04;124914;1105;104409;-74
2021/08/09 10:34:53;;;;;;;5.90;4.30;;;;;;;29.12;43.77;100678.50;124931;1105;104221;-76
2021/08/09 10:37:26;;;;;;;7.60;4.33;;;;;;;29.16;43.76;100681.99;124900;1105;104153;-76
2021/08/09 10:40:01;;;;;;;7.87;3.87;;;;;;;29.22;44.21;100690.77;124984;1105;104153;-76
2021/08/09 10:42:39;;;;;;;9.20;4.03;;;;;;;29.22;43.91;100679.09;124626;1109;104735;-75
2021/08/09 10:45:13;;;;;;;6.47;4.30;;;;;;;29.23;44.50;100675.42;124594;1109;104185;-77
2021/08/09 10:47:59;;;;;;;7.90;4.50;;;;;;;29.27;44.83;100674.37;124644;1106;104204;-78
2021/08/09 10:50:54;;;;;;;7.72;4.60;;;;;;;29.35;45.06;100671.36;124665;1105;104152;-77
2021/08/09 10:53:49;;;;;;;7.90;4.10;;;;;;;29.41;44.76;100665.72;124920;1105;104159;-78
2021/08/09 10:56:48;;;;;;;8.27;4.70;;;;;;;29.41;45.00;100663.02;124639;1105;104227;-75
2021/08/09 10:59:48;;;;;;;4.43;3.80;;;;;;;29.40;45.16;100662.14;124602;1109;104277;-76
2021/08/09 11:02:22;;;;;;;6.73;4.10;;;;;;;29.48;44.83;100669.95;124616;1109;104197;-77
2021/08/09 11:05:19;;;;;;;6.20;4.17;;;;;;;29.49;44.47;100662.70;124995;1105;104659;-77
2021/08/09 11:08:23;;;;;;;4.93;3.80;;;;;;;29.53;44.39;100656.21;124915;1105;104191;-77
2021/08/09 11:11:04;;;;;;;6.40;4.43;;;;;;;29.48;44.40;100656.43;125054;1102;104353;-76
2021/08/09 11:14:03;;;;;;;10.50;4.30;;;;;;;29.49;44.75;100649.19;125221;1102;104428;-76
2021/08/09 11:16:37;;;;;;;7.10;4.10;;;;;;;29.52;43.63;100666.16;125158;1100;104277;-79
2021/08/09 11:19:26;;;;;;;9.37;3.93;;;;;;;29.47;43.21;100656.49;125154;1102;104143;-79
2021/08/09 11:22:02;;;;;;;4.57;3.73;;;;;;;29.54;42.93;100655.28;125131;1102;104274;-77
2021/08/09 11:24:37;;;;;;;7.13;3.83;;;;;;;29.61;42.99;100648.69;125119;1102;104248;-77
2021/08/09 11:27:13;;;;;;;10.03;4.10;;;;;;;29.62;42.85;100644.16;125209;1102;104252;-75
2021/08/09 11:29:58;;;;;;;5.03;3.73;;;;;;;29.68;43.21;100652.01;125027;1102;104220;-76
2021/08/09 11:32:42;;;;;;;6.57;4.17;;;;;;;29.72;42.92;100648.24;125106;1102;104161;-76
2021/08/09 11:35:15;;;;;;;6.73;4.30;;;;;;;29.72;42.97;100635.59;125158;1102;104167;-77
2021/08/09 11:37:58;;;;;;;7.27;4.27;;;;;;;29.76;43.09;100639.04;125141;1102;104144;-76
2021/08/09 11:40:44;;;;;;;7.07;4.33;;;;;;;29.77;43.46;100638.11;125118;1102;104153;-75
2021/08/09 11:43:23;;;;;;;14.07;4.40;;;;;;;29.81;42.80;100628.06;125174;1102;104277;-75
2021/08/09 11:45:57;;;;;;;8.30;4.10;;;;;;;29.81;42.64;100628.06;125219;1101;104160;-75
2021/08/09 11:48:31;;;;;;;6.80;4.23;;;;;;;29.83;42.85;100626.19;125148;1102;104146;-74
2021/08/09 11:51:04;;;;;;;9.87;4.30;;;;;;;29.84;42.67;100626.13;125112;1102;104239;-76